sensor_id;sensor_type;location;lat;lon;timestamp;pressure;altitude;pressure_sealevel;temperature;humidity
69411;BME280;56604;48.652;9.194;2023-04-12T00:02:10;95763.47;;;8.58;60.76
69411;BME280;56604;48.652;9.194;2023-04-12T00:04:36;95761.13;;;8.62;60.27
69411;BME280;56604;48.652;9.194;2023-04-12T00:07:02;95756.31;;;8.53;61.08
69411;BME280;56604;48.652;9.194;2023-04-12T00:09:28;95756.94;;;8.61;61.64
69411;BME280;56604;48.652;9.194;2023-04-12T00:11:54;95747.69;;;8.53;62.88
69411;BME280;56604;48.652;9.194;2023-04-12T00:14:21;95746.56;;;8.44;63.14
69411;BME280;56604;48.652;9.194;2023-04-12T00:16:46;95746.25;;;8.40;63.89
69411;BME280;56604;48.652;9.194;2023-04-12T00:19:12;95745.78;;;8.43;65.28
69411;BME280;56604;48.652;9.194;2023-04-12T00:21:37;95746.25;;;8.40;66.11
69411;BME280;56604;48.652;9.194;2023-04-12T00:24:03;95744.66;;;8.39;66.09
69411;BME280;56604;48.652;9.194;2023-04-12T00:26:28;95746.19;;;8.35;67.49
69411;BME280;56604;48.652;9.194;2023-04-12T00:28:53;95739.50;;;8.22;68.78
69411;BME280;56604;48.652;9.194;2023-04-12T00:31:19;95731.97;;;8.31;69.21
69411;BME280;56604;48.652;9.194;2023-04-12T00:33:44;95733.78;;;8.25;70.57
69411;BME280;56604;48.652;9.194;2023-04-12T00:36:10;95729.16;;;8.10;71.86
69411;BME280;56604;48.652;9.194;2023-04-12T00:38:36;95725.94;;;8.03;73.51
69411;BME280;56604;48.652;9.194;2023-04-12T00:41:01;95733.97;;;7.97;74.74
69411;BME280;56604;48.652;9.194;2023-04-12T00:43:27;95725.81;;;7.93;75.07
69411;BME280;56604;48.652;9.194;2023-04-12T00:45:53;95722.13;;;7.89;75.94
69411;BME280;56604;48.652;9.194;2023-04-12T00:48:21;95713.78;;;7.92;76.76
69411;BME280;56604;48.652;9.194;2023-04-12T00:50:47;95713.78;;;7.92;77.15
69411;BME280;56604;48.652;9.194;2023-04-12T00:53:13;95715.56;;;7.86;78.09
69411;BME280;56604;48.652;9.194;2023-04-12T00:55:43;95703.09;;;7.72;79.09
69411;BME280;56604;48.652;9.194;2023-04-12T00:58:08;95701.25;;;7.72;79.95
69411;BME280;56604;48.652;9.194;2023-04-12T01:00:34;95696.31;;;7.76;79.73
69411;BME280;56604;48.652;9.194;2023-04-12T01:03:00;95700.78;;;7.75;80.20
69411;BME280;56604;48.652;9.194;2023-04-12T01:05:27;95694.19;;;7.73;81.00
69411;BME280;56604;48.652;9.194;2023-04-12T01:08:16;95694.19;;;7.73;80.71
69411;BME280;56604;48.652;9.194;2023-04-12T01:11:01;95692.97;;;7.58;81.34
69411;BME280;56604;48.652;9.194;2023-04-12T01:13:40;95692.53;;;7.44;83.07
69411;BME280;56604;48.652;9.194;2023-04-12T01:16:42;95695.91;;;7.40;83.32
69411;BME280;56604;48.652;9.194;2023-04-12T01:29:38;95676.31;;;7.04;86.44
69411;BME280;56604;48.652;9.194;2023-04-12T01:32:04;95674.00;;;7.07;87.26
69411;BME280;56604;48.652;9.194;2023-04-12T01:34:32;95671.69;;;7.11;88.12
69411;BME280;56604;48.652;9.194;2023-04-12T01:37:00;95671.41;;;7.07;88.13
69411;BME280;56604;48.652;9.194;2023-04-12T01:39:26;95665.06;;;7.20;87.61
69411;BME280;56604;48.652;9.194;2023-04-12T01:41:51;95661.09;;;7.17;88.89
69411;BME280;56604;48.652;9.194;2023-04-12T01:44:17;95658.91;;;7.09;89.18
69411;BME280;56604;48.652;9.194;2023-04-12T01:46:44;95648.16;;;6.89;89.66
69411;BME280;56604;48.652;9.194;2023-04-12T01:49:12;95642.50;;;6.97;89.08
69411;BME280;56604;48.652;9.194;2023-04-12T01:54:23;95634.88;;;6.73;90.48
69411;BME280;56604;48.652;9.194;2023-04-12T01:56:54;95632.00;;;6.92;90.32
69411;BME280;56604;48.652;9.194;2023-04-12T01:59:22;95635.41;;;6.92;90.28
69411;BME280;56604;48.652;9.194;2023-04-12T02:01:50;95631.16;;;7.08;90.91
69411;BME280;56604;48.652;9.194;2023-04-12T02:04:16;95626.59;;;6.98;90.64
69411;BME280;56604;48.652;9.194;2023-04-12T02:06:44;95623.22;;;6.81;91.53
69411;BME280;56604;48.652;9.194;2023-04-12T02:09:10;95621.00;;;6.90;91.69
69411;BME280;56604;48.652;9.194;2023-04-12T02:11:35;95613.88;;;6.85;91.81
69411;BME280;56604;48.652;9.194;2023-04-12T02:14:00;95609.28;;;6.92;92.01
69411;BME280;56604;48.652;9.194;2023-04-12T02:16:26;95603.81;;;6.77;91.96
69411;BME280;56604;48.652;9.194;2023-04-12T02:18:53;95598.84;;;6.75;92.28
69411;BME280;56604;48.652;9.194;2023-04-12T02:21:20;95588.81;;;6.67;92.94
69411;BME280;56604;48.652;9.194;2023-04-12T02:23:45;95592.59;;;6.76;92.98
69411;BME280;56604;48.652;9.194;2023-04-12T02:26:11;95588.75;;;6.62;93.67
69411;BME280;56604;48.652;9.194;2023-04-12T02:28:39;95582.03;;;6.66;94.52
69411;BME280;56604;48.652;9.194;2023-04-12T02:31:05;95575.75;;;6.67;94.84
69411;BME280;56604;48.652;9.194;2023-04-12T02:33:30;95573.16;;;6.67;94.34
69411;BME280;56604;48.652;9.194;2023-04-12T02:35:56;95560.91;;;6.51;94.30
69411;BME280;56604;48.652;9.194;2023-04-12T02:38:22;95558.94;;;6.58;94.56
69411;BME280;56604;48.652;9.194;2023-04-12T02:40:47;95560.00;;;6.62;94.74
69411;BME280;56604;48.652;9.194;2023-04-12T02:43:13;95559.22;;;6.62;95.20
69411;BME280;56604;48.652;9.194;2023-04-12T02:45:38;95547.34;;;6.54;94.99
69411;BME280;56604;48.652;9.194;2023-04-12T02:48:03;95547.34;;;6.54;95.73
69411;BME280;56604;48.652;9.194;2023-04-12T02:50:29;95545.78;;;6.53;95.88
69411;BME280;56604;48.652;9.194;2023-04-12T02:52:54;95531.53;;;6.61;95.76
69411;BME280;56604;48.652;9.194;2023-04-12T02:55:20;95528.38;;;6.59;96.02
69411;BME280;56604;48.652;9.194;2023-04-12T02:57:46;95523.72;;;6.61;95.46
69411;BME280;56604;48.652;9.194;2023-04-12T03:00:13;95521.31;;;6.59;95.08
69411;BME280;56604;48.652;9.194;2023-04-12T03:02:39;95510.66;;;6.61;94.98
69411;BME280;56604;48.652;9.194;2023-04-12T03:05:05;95505.47;;;6.66;95.78
69411;BME280;56604;48.652;9.194;2023-04-12T03:07:31;95504.69;;;6.65;95.36
69411;BME280;56604;48.652;9.194;2023-04-12T03:09:57;95502.00;;;6.60;95.33
69411;BME280;56604;48.652;9.194;2023-04-12T03:12:23;95493.72;;;6.63;95.06
69411;BME280;56604;48.652;9.194;2023-04-12T03:14:48;95484.28;;;6.62;95.62
69411;BME280;56604;48.652;9.194;2023-04-12T03:17:13;95472.81;;;6.63;95.70
69411;BME280;56604;48.652;9.194;2023-04-12T03:19:39;95473.41;;;6.70;95.84
69411;BME280;56604;48.652;9.194;2023-04-12T03:22:04;95479.63;;;6.64;95.44
69411;BME280;56604;48.652;9.194;2023-04-12T03:24:30;95468.13;;;6.65;96.05
69411;BME280;56604;48.652;9.194;2023-04-12T03:27:00;95469.75;;;6.71;95.83
69411;BME280;56604;48.652;9.194;2023-04-12T03:29:26;95463.94;;;6.64;96.01
69411;BME280;56604;48.652;9.194;2023-04-12T03:31:52;95455.06;;;6.65;95.80
69411;BME280;56604;48.652;9.194;2023-04-12T03:34:17;95454.97;;;6.55;96.50
69411;BME280;56604;48.652;9.194;2023-04-12T03:36:42;95453.38;;;6.54;96.41
69411;BME280;56604;48.652;9.194;2023-04-12T03:39:07;95448.63;;;6.51;97.10
69411;BME280;56604;48.652;9.194;2023-04-12T03:41:33;95445.78;;;6.52;97.37
69411;BME280;56604;48.652;9.194;2023-04-12T03:43:58;95447.63;;;6.52;97.50
69411;BME280;56604;48.652;9.194;2023-04-12T03:46:23;95446.50;;;6.48;98.15
69411;BME280;56604;48.652;9.194;2023-04-12T03:48:49;95444.69;;;6.48;97.34
69411;BME280;56604;48.652;9.194;2023-04-12T03:51:16;95427.16;;;6.44;97.56
69411;BME280;56604;48.652;9.194;2023-04-12T03:53:41;95434.41;;;6.42;97.43
69411;BME280;56604;48.652;9.194;2023-04-12T03:56:07;95425.88;;;6.46;97.70
69411;BME280;56604;48.652;9.194;2023-04-12T03:58:33;95427.94;;;6.44;97.47
69411;BME280;56604;48.652;9.194;2023-04-12T04:01:00;95415.78;;;6.55;97.40
69411;BME280;56604;48.652;9.194;2023-04-12T04:03:28;95414.94;;;6.49;97.71
69411;BME280;56604;48.652;9.194;2023-04-12T04:05:54;95417.19;;;6.41;98.00
69411;BME280;56604;48.652;9.194;2023-04-12T04:08:20;95411.34;;;6.56;98.05
69411;BME280;56604;48.652;9.194;2023-04-12T04:10:45;95405.78;;;6.47;98.03
69411;BME280;56604;48.652;9.194;2023-04-12T04:13:10;95401.41;;;6.52;97.70
69411;BME280;56604;48.652;9.194;2023-04-12T04:15:36;95399.81;;;6.51;97.43
69411;BME280;56604;48.652;9.194;2023-04-12T04:18:01;95397.88;;;6.42;97.56
69411;BME280;56604;48.652;9.194;2023-04-12T04:20:26;95393.72;;;6.46;96.92
69411;BME280;56604;48.652;9.194;2023-04-12T04:22:52;95380.16;;;6.44;97.17
69411;BME280;56604;48.652;9.194;2023-04-12T04:25:18;95382.34;;;6.52;97.09
69411;BME280;56604;48.652;9.194;2023-04-12T04:27:43;95374.50;;;6.52;96.16
69411;BME280;56604;48.652;9.194;2023-04-12T04:30:11;95373.94;;;6.50;96.68
69411;BME280;56604;48.652;9.194;2023-04-12T04:32:37;95363.50;;;6.50;96.41
69411;BME280;56604;48.652;9.194;2023-04-12T04:35:03;95364.00;;;6.47;96.74
69411;BME280;56604;48.652;9.194;2023-04-12T04:37:30;95367.16;;;6.49;97.45
69411;BME280;56604;48.652;9.194;2023-04-12T04:39:55;95371.63;;;6.53;97.62
69411;BME280;56604;48.652;9.194;2023-04-12T04:42:22;95368.38;;;6.63;96.73
69411;BME280;56604;48.652;9.194;2023-04-12T04:44:48;95363.03;;;6.53;96.83
69411;BME280;56604;48.652;9.194;2023-04-12T04:47:15;95360.47;;;6.58;96.96
69411;BME280;56604;48.652;9.194;2023-04-12T04:49:42;95362.53;;;6.56;97.08
69411;BME280;56604;48.652;9.194;2023-04-12T04:52:07;95355.78;;;6.60;97.17
69411;BME280;56604;48.652;9.194;2023-04-12T04:54:34;95358.78;;;6.47;97.44
69411;BME280;56604;48.652;9.194;2023-04-12T04:57:00;95349.03;;;6.64;97.20
69411;BME280;56604;48.652;9.194;2023-04-12T04:59:25;95341.63;;;6.56;96.94
69411;BME280;56604;48.652;9.194;2023-04-12T05:01:51;95349.97;;;6.53;97.57
69411;BME280;56604;48.652;9.194;2023-04-12T05:04:16;95350.50;;;6.55;97.47
69411;BME280;56604;48.652;9.194;2023-04-12T05:06:41;95345.81;;;6.57;97.59
69411;BME280;56604;48.652;9.194;2023-04-12T05:09:07;95343.03;;;6.64;97.73
69411;BME280;56604;48.652;9.194;2023-04-12T05:11:32;95346.16;;;6.66;97.75
69411;BME280;56604;48.652;9.194;2023-04-12T05:13:57;95347.81;;;6.72;98.11
69411;BME280;56604;48.652;9.194;2023-04-12T05:16:22;95347.22;;;6.65;97.63
69411;BME280;56604;48.652;9.194;2023-04-12T05:18:48;95347.06;;;6.76;97.05
69411;BME280;56604;48.652;9.194;2023-04-12T05:21:13;95344.03;;;6.58;97.43
69411;BME280;56604;48.652;9.194;2023-04-12T05:23:44;95337.97;;;6.57;97.35
69411;BME280;56604;48.652;9.194;2023-04-12T05:26:10;95332.28;;;6.60;97.98
69411;BME280;56604;48.652;9.194;2023-04-12T05:28:35;95332.94;;;6.72;97.99
69411;BME280;56604;48.652;9.194;2023-04-12T05:31:01;95328.16;;;6.64;97.85
69411;BME280;56604;48.652;9.194;2023-04-12T05:33:26;95330.91;;;6.80;98.08
69411;BME280;56604;48.652;9.194;2023-04-12T05:35:51;95326.09;;;6.66;98.48
69411;BME280;56604;48.652;9.194;2023-04-12T05:38:17;95320.88;;;6.66;98.57
69411;BME280;56604;48.652;9.194;2023-04-12T05:40:42;95322.03;;;6.81;97.70
69411;BME280;56604;48.652;9.194;2023-04-12T05:43:10;95318.88;;;6.79;97.85
69411;BME280;56604;48.652;9.194;2023-04-12T05:45:37;95309.06;;;6.91;97.36
69411;BME280;56604;48.652;9.194;2023-04-12T05:48:03;95297.47;;;6.82;97.21
69411;BME280;56604;48.652;9.194;2023-04-12T05:50:28;95303.22;;;6.79;97.30
69411;BME280;56604;48.652;9.194;2023-04-12T05:52:54;95293.13;;;6.92;97.42
69411;BME280;56604;48.652;9.194;2023-04-12T05:55:20;95282.41;;;6.89;97.63
69411;BME280;56604;48.652;9.194;2023-04-12T05:57:45;95285.25;;;6.87;97.54
69411;BME280;56604;48.652;9.194;2023-04-12T06:00:11;95278.19;;;6.88;97.52
69411;BME280;56604;48.652;9.194;2023-04-12T06:02:44;95266.47;;;6.90;97.74
69411;BME280;56604;48.652;9.194;2023-04-12T06:05:10;95250.56;;;6.97;97.75
69411;BME280;56604;48.652;9.194;2023-04-12T06:07:36;95257.56;;;6.86;97.38
69411;BME280;56604;48.652;9.194;2023-04-12T06:10:03;95258.63;;;6.90;98.14
69411;BME280;56604;48.652;9.194;2023-04-12T06:12:29;95249.06;;;7.01;97.62
69411;BME280;56604;48.652;9.194;2023-04-12T06:14:54;95245.97;;;7.09;97.14
69411;BME280;56604;48.652;9.194;2023-04-12T06:17:20;95249.38;;;7.10;97.31
69411;BME280;56604;48.652;9.194;2023-04-12T06:19:46;95241.25;;;7.06;97.15
69411;BME280;56604;48.652;9.194;2023-04-12T06:22:11;95241.78;;;7.08;97.02
69411;BME280;56604;48.652;9.194;2023-04-12T06:24:36;95222.97;;;7.11;97.22
69411;BME280;56604;48.652;9.194;2023-04-12T06:27:02;95222.41;;;7.04;97.05
69411;BME280;56604;48.652;9.194;2023-04-12T06:29:27;95215.91;;;7.07;97.24
69411;BME280;56604;48.652;9.194;2023-04-12T06:31:52;95212.50;;;7.11;96.91
69411;BME280;56604;48.652;9.194;2023-04-12T06:34:18;95215.44;;;7.15;96.31
69411;BME280;56604;48.652;9.194;2023-04-12T06:36:43;95208.97;;;7.28;96.42
69411;BME280;56604;48.652;9.194;2023-04-12T06:39:10;95205.28;;;7.24;95.78
69411;BME280;56604;48.652;9.194;2023-04-12T06:41:36;95197.47;;;7.29;96.41
69411;BME280;56604;48.652;9.194;2023-04-12T06:44:01;95197.22;;;7.30;96.43
69411;BME280;56604;48.652;9.194;2023-04-12T06:46:27;95192.81;;;7.36;96.06
69411;BME280;56604;48.652;9.194;2023-04-12T06:48:53;95190.50;;;7.44;96.30
69411;BME280;56604;48.652;9.194;2023-04-12T06:51:18;95182.91;;;7.48;95.48
69411;BME280;56604;48.652;9.194;2023-04-12T06:53:44;95177.69;;;7.48;95.27
69411;BME280;56604;48.652;9.194;2023-04-12T06:56:09;95178.78;;;7.57;96.02
69411;BME280;56604;48.652;9.194;2023-04-12T06:58:34;95187.66;;;7.56;94.92
69411;BME280;56604;48.652;9.194;2023-04-12T07:01:07;95173.56;;;7.57;94.29
69411;BME280;56604;48.652;9.194;2023-04-12T07:03:33;95174.03;;;7.49;94.61
69411;BME280;56604;48.652;9.194;2023-04-12T07:05:59;95168.84;;;7.59;95.10
69411;BME280;56604;48.652;9.194;2023-04-12T07:08:26;95176.72;;;7.64;95.06
69411;BME280;56604;48.652;9.194;2023-04-12T07:10:53;95164.19;;;7.77;94.51
69411;BME280;56604;48.652;9.194;2023-04-12T07:13:18;95160.53;;;7.73;94.72
69411;BME280;56604;48.652;9.194;2023-04-12T07:15:43;95144.31;;;7.81;94.24
69411;BME280;56604;48.652;9.194;2023-04-12T07:18:08;95143.28;;;7.82;94.37
69411;BME280;56604;48.652;9.194;2023-04-12T07:20:34;95134.91;;;7.85;94.35
69411;BME280;56604;48.652;9.194;2023-04-12T07:22:59;95142.78;;;7.95;93.80
69411;BME280;56604;48.652;9.194;2023-04-12T07:25:25;95136.75;;;7.89;93.44
69411;BME280;56604;48.652;9.194;2023-04-12T07:27:50;95136.50;;;8.01;93.50
69411;BME280;56604;48.652;9.194;2023-04-12T07:30:15;95118.19;;;7.96;93.69
69411;BME280;56604;48.652;9.194;2023-04-12T07:32:41;95103.53;;;8.10;92.87
69411;BME280;56604;48.652;9.194;2023-04-12T07:35:06;95094.38;;;8.13;92.69
69411;BME280;56604;48.652;9.194;2023-04-12T07:37:32;95082.59;;;8.16;93.23
69411;BME280;56604;48.652;9.194;2023-04-12T07:39:57;95086.28;;;8.20;93.46
69411;BME280;56604;48.652;9.194;2023-04-12T07:42:23;95079.72;;;8.32;92.71
69411;BME280;56604;48.652;9.194;2023-04-12T07:44:48;95081.56;;;8.32;92.38
69411;BME280;56604;48.652;9.194;2023-04-12T07:47:13;95075.25;;;8.28;92.35
69411;BME280;56604;48.652;9.194;2023-04-12T07:49:39;95066.38;;;8.29;92.31
69411;BME280;56604;48.652;9.194;2023-04-12T07:52:04;95059.59;;;8.43;91.71
69411;BME280;56604;48.652;9.194;2023-04-12T07:54:29;95061.63;;;8.62;91.38
69411;BME280;56604;48.652;9.194;2023-04-12T07:56:57;95067.88;;;8.76;91.08
69411;BME280;56604;48.652;9.194;2023-04-12T07:59:23;95047.38;;;8.93;89.64
69411;BME280;56604;48.652;9.194;2023-04-12T08:01:48;95046.78;;;9.17;89.27
69411;BME280;56604;48.652;9.194;2023-04-12T08:04:13;95052.16;;;8.86;88.76
69411;BME280;56604;48.652;9.194;2023-04-12T08:06:38;95053.44;;;8.89;88.80
69411;BME280;56604;48.652;9.194;2023-04-12T08:09:04;95041.59;;;9.07;88.01
69411;BME280;56604;48.652;9.194;2023-04-12T08:11:29;95036.19;;;9.42;87.34
69411;BME280;56604;48.652;9.194;2023-04-12T08:13:55;95042.59;;;9.16;86.72
69411;BME280;56604;48.652;9.194;2023-04-12T08:16:20;95034.19;;;9.19;86.88
69411;BME280;56604;48.652;9.194;2023-04-12T08:18:45;95034.13;;;9.34;85.24
69411;BME280;56604;48.652;9.194;2023-04-12T08:21:11;95030.88;;;9.48;86.41
69411;BME280;56604;48.652;9.194;2023-04-12T08:23:36;95032.25;;;9.40;86.95
69411;BME280;56604;48.652;9.194;2023-04-12T08:26:02;95038.81;;;9.42;87.00
69411;BME280;56604;48.652;9.194;2023-04-12T08:28:28;95036.94;;;9.48;85.96
69411;BME280;56604;48.652;9.194;2023-04-12T08:30:53;95030.84;;;9.58;86.07
69411;BME280;56604;48.652;9.194;2023-04-12T08:33:19;95029.31;;;9.46;86.06
69411;BME280;56604;48.652;9.194;2023-04-12T08:35:44;95014.94;;;9.78;84.96
69411;BME280;56604;48.652;9.194;2023-04-12T08:38:10;95026.28;;;9.74;86.23
69411;BME280;56604;48.652;9.194;2023-04-12T08:40:35;95030.59;;;9.94;85.92
69411;BME280;56604;48.652;9.194;2023-04-12T08:43:05;95043.16;;;9.62;86.88
69411;BME280;56604;48.652;9.194;2023-04-12T08:45:33;95047.47;;;9.82;86.96
69411;BME280;56604;48.652;9.194;2023-04-12T08:48:01;95044.19;;;10.01;85.68
69411;BME280;56604;48.652;9.194;2023-04-12T08:50:28;95033.78;;;9.90;86.79
69411;BME280;56604;48.652;9.194;2023-04-12T08:52:54;95027.97;;;9.94;86.51
69411;BME280;56604;48.652;9.194;2023-04-12T08:55:20;95023.72;;;10.32;86.03
69411;BME280;56604;48.652;9.194;2023-04-12T08:57:46;95031.75;;;10.11;85.87
69411;BME280;56604;48.652;9.194;2023-04-12T09:00:12;95022.34;;;10.05;85.03
69411;BME280;56604;48.652;9.194;2023-04-12T09:02:39;95017.41;;;9.99;85.87
69411;BME280;56604;48.652;9.194;2023-04-12T09:05:10;95019.00;;;10.00;85.67
69411;BME280;56604;48.652;9.194;2023-04-12T09:07:36;95015.91;;;9.87;85.72
69411;BME280;56604;48.652;9.194;2023-04-12T09:10:02;95010.03;;;10.01;86.18
69411;BME280;56604;48.652;9.194;2023-04-12T09:12:28;95011.56;;;10.07;85.19
69411;BME280;56604;48.652;9.194;2023-04-12T09:17:29;95013.56;;;10.20;85.88
69411;BME280;56604;48.652;9.194;2023-04-12T09:19:56;95011.72;;;10.21;85.76
69411;BME280;56604;48.652;9.194;2023-04-12T09:22:34;95002.84;;;10.70;85.66
69411;BME280;56604;48.652;9.194;2023-04-12T09:25:00;95002.88;;;10.41;86.45
69411;BME280;56604;48.652;9.194;2023-04-12T09:27:25;95000.78;;;10.67;86.89
69411;BME280;56604;48.652;9.194;2023-04-12T09:30:05;94999.28;;;10.85;85.33
69411;BME280;56604;48.652;9.194;2023-04-12T09:32:31;94986.28;;;10.69;85.70
69411;BME280;56604;48.652;9.194;2023-04-12T09:34:57;94988.31;;;10.77;85.39
69411;BME280;56604;48.652;9.194;2023-04-12T09:37:25;94981.59;;;10.66;84.91
69411;BME280;56604;48.652;9.194;2023-04-12T09:40:00;94984.75;;;10.68;85.24
69411;BME280;56604;48.652;9.194;2023-04-12T09:42:26;94973.97;;;10.89;85.93
69411;BME280;56604;48.652;9.194;2023-04-12T09:44:52;94982.41;;;11.29;83.91
69411;BME280;56604;48.652;9.194;2023-04-12T09:47:18;94982.31;;;11.15;83.21
69411;BME280;56604;48.652;9.194;2023-04-12T09:49:44;94987.53;;;11.39;81.71
69411;BME280;56604;48.652;9.194;2023-04-12T09:52:11;94995.78;;;11.32;82.38
69411;BME280;56604;48.652;9.194;2023-04-12T09:54:41;94977.72;;;11.44;82.25
69411;BME280;56604;48.652;9.194;2023-04-12T09:57:07;94977.75;;;11.77;80.21
69411;BME280;56604;48.652;9.194;2023-04-12T09:59:39;94968.97;;;12.01;78.83
69411;BME280;56604;48.652;9.194;2023-04-12T10:02:15;94963.56;;;12.25;78.83
69411;BME280;56604;48.652;9.194;2023-04-12T10:04:42;94963.47;;;12.16;79.18
69411;BME280;56604;48.652;9.194;2023-04-12T10:07:07;94957.53;;;12.38;79.29
69411;BME280;56604;48.652;9.194;2023-04-12T10:09:36;94957.53;;;12.52;78.30
69411;BME280;56604;48.652;9.194;2023-04-12T10:12:02;94958.03;;;12.54;76.48
69411;BME280;56604;48.652;9.194;2023-04-12T10:14:28;94950.84;;;13.23;75.82
69411;BME280;56604;48.652;9.194;2023-04-12T10:16:59;94944.16;;;13.40;72.87
69411;BME280;56604;48.652;9.194;2023-04-12T10:19:26;94952.41;;;13.11;73.80
69411;BME280;56604;48.652;9.194;2023-04-12T10:21:53;94951.06;;;13.49;74.75
69411;BME280;56604;48.652;9.194;2023-04-12T10:24:23;94952.75;;;12.95;74.90
69411;BME280;56604;48.652;9.194;2023-04-12T10:26:50;94944.34;;;13.43;75.29
69411;BME280;56604;48.652;9.194;2023-04-12T10:29:29;94941.91;;;13.92;73.54
69411;BME280;56604;48.652;9.194;2023-04-12T10:31:57;94934.97;;;13.60;73.77
69411;BME280;56604;48.652;9.194;2023-04-12T10:34:29;94929.31;;;13.66;72.47
69411;BME280;56604;48.652;9.194;2023-04-12T10:36:56;94926.53;;;13.71;72.38
69411;BME280;56604;48.652;9.194;2023-04-12T10:39:41;94927.38;;;13.58;72.44
69411;BME280;56604;48.652;9.194;2023-04-12T10:42:28;94936.31;;;13.71;71.31
69411;BME280;56604;48.652;9.194;2023-04-12T10:44:56;94932.22;;;13.65;70.21
69411;BME280;56604;48.652;9.194;2023-04-12T10:50:22;94931.31;;;13.11;70.42
69411;BME280;56604;48.652;9.194;2023-04-12T10:55:43;94927.94;;;13.69;71.51
69411;BME280;56604;48.652;9.194;2023-04-12T10:58:09;94926.81;;;13.92;69.13
69411;BME280;56604;48.652;9.194;2023-04-12T11:03:23;94906.38;;;14.07;68.80
69411;BME280;56604;48.652;9.194;2023-04-12T11:08:22;94899.38;;;13.80;67.57
69411;BME280;56604;48.652;9.194;2023-04-12T11:10:48;94899.47;;;13.43;69.47
69411;BME280;56604;48.652;9.194;2023-04-12T11:13:14;94901.50;;;13.69;69.13
69411;BME280;56604;48.652;9.194;2023-04-12T11:15:41;94890.56;;;13.84;68.60
69411;BME280;56604;48.652;9.194;2023-04-12T11:18:06;94888.13;;;14.36;67.75
69411;BME280;56604;48.652;9.194;2023-04-12T11:20:32;94874.59;;;13.89;66.53
69411;BME280;56604;48.652;9.194;2023-04-12T11:22:58;94893.19;;;14.15;67.87
69411;BME280;56604;48.652;9.194;2023-04-12T11:25:24;94883.44;;;14.25;67.05
69411;BME280;56604;48.652;9.194;2023-04-12T11:27:51;94878.00;;;14.21;66.83
69411;BME280;56604;48.652;9.194;2023-04-12T11:30:16;94874.19;;;14.45;65.88
69411;BME280;56604;48.652;9.194;2023-04-12T11:32:44;94865.25;;;14.23;65.79
69411;BME280;56604;48.652;9.194;2023-04-12T11:35:09;94858.72;;;13.58;67.70
69411;BME280;56604;48.652;9.194;2023-04-12T11:37:35;94857.25;;;13.43;66.82
69411;BME280;56604;48.652;9.194;2023-04-12T11:40:02;94875.22;;;13.64;66.37
69411;BME280;56604;48.652;9.194;2023-04-12T11:42:30;94858.47;;;13.23;67.05
69411;BME280;56604;48.652;9.194;2023-04-12T11:44:57;94856.75;;;13.64;67.06
69411;BME280;56604;48.652;9.194;2023-04-12T11:47:23;94875.16;;;13.55;68.08
69411;BME280;56604;48.652;9.194;2023-04-12T11:49:51;94858.47;;;14.00;65.70
69411;BME280;56604;48.652;9.194;2023-04-12T11:52:17;94849.59;;;14.35;64.76
69411;BME280;56604;48.652;9.194;2023-04-12T11:54:45;94861.03;;;14.62;65.37
69411;BME280;56604;48.652;9.194;2023-04-12T11:57:12;94858.78;;;14.47;63.68
69411;BME280;56604;48.652;9.194;2023-04-12T11:59:37;94843.31;;;14.23;64.63
69411;BME280;56604;48.652;9.194;2023-04-12T12:02:04;94842.84;;;14.69;64.03
69411;BME280;56604;48.652;9.194;2023-04-12T12:04:31;94839.41;;;14.20;64.23
69411;BME280;56604;48.652;9.194;2023-04-12T12:06:57;94843.94;;;14.28;64.87
69411;BME280;56604;48.652;9.194;2023-04-12T12:09:24;94837.16;;;14.45;65.32
69411;BME280;56604;48.652;9.194;2023-04-12T12:11:50;94830.06;;;14.62;63.50
69411;BME280;56604;48.652;9.194;2023-04-12T12:14:20;94841.28;;;14.68;63.34
69411;BME280;56604;48.652;9.194;2023-04-12T12:16:57;94831.78;;;14.58;65.09
69411;BME280;56604;48.652;9.194;2023-04-12T12:19:27;94834.44;;;14.67;63.61
69411;BME280;56604;48.652;9.194;2023-04-12T12:22:12;94838.13;;;14.49;65.30
69411;BME280;56604;48.652;9.194;2023-04-12T12:25:04;94841.94;;;15.17;63.05
69411;BME280;56604;48.652;9.194;2023-04-12T12:27:35;94821.38;;;14.79;63.27
69411;BME280;56604;48.652;9.194;2023-04-12T12:30:02;94840.50;;;15.11;62.80
69411;BME280;56604;48.652;9.194;2023-04-12T12:32:32;94832.28;;;15.04;62.06
69411;BME280;56604;48.652;9.194;2023-04-12T12:34:59;94818.56;;;15.19;62.51
69411;BME280;56604;48.652;9.194;2023-04-12T12:37:26;94817.31;;;15.25;61.68
69411;BME280;56604;48.652;9.194;2023-04-12T12:39:59;94828.94;;;15.59;61.11
69411;BME280;56604;48.652;9.194;2023-04-12T12:42:25;94825.56;;;15.33;61.40
69411;BME280;56604;48.652;9.194;2023-04-12T12:44:50;94817.66;;;14.80;61.66
69411;BME280;56604;48.652;9.194;2023-04-12T12:47:16;94811.41;;;15.11;61.65
69411;BME280;56604;48.652;9.194;2023-04-12T12:49:41;94811.81;;;15.48;62.30
69411;BME280;56604;48.652;9.194;2023-04-12T12:52:06;94822.94;;;15.15;60.92
69411;BME280;56604;48.652;9.194;2023-04-12T12:54:32;94815.00;;;15.06;61.29
69411;BME280;56604;48.652;9.194;2023-04-12T12:56:57;94811.09;;;15.21;60.16
69411;BME280;56604;48.652;9.194;2023-04-12T12:59:22;94809.38;;;14.91;60.61
69411;BME280;56604;48.652;9.194;2023-04-12T13:01:48;94821.84;;;15.16;60.47
69411;BME280;56604;48.652;9.194;2023-04-12T13:04:13;94812.19;;;15.12;60.38
69411;BME280;56604;48.652;9.194;2023-04-12T13:06:38;94807.53;;;15.09;60.90
69411;BME280;56604;48.652;9.194;2023-04-12T13:09:04;94803.63;;;15.06;61.28
69411;BME280;56604;48.652;9.194;2023-04-12T13:11:29;94809.84;;;15.10;60.77
69411;BME280;56604;48.652;9.194;2023-04-12T13:13:54;94789.94;;;14.95;61.37
69411;BME280;56604;48.652;9.194;2023-04-12T13:16:20;94782.28;;;15.02;61.20
69411;BME280;56604;48.652;9.194;2023-04-12T13:18:45;94788.19;;;15.08;61.14
69411;BME280;56604;48.652;9.194;2023-04-12T13:21:11;94788.53;;;14.98;61.60
69411;BME280;56604;48.652;9.194;2023-04-12T13:23:36;94774.38;;;14.59;61.83
69411;BME280;56604;48.652;9.194;2023-04-12T13:26:01;94788.22;;;14.56;61.91
69411;BME280;56604;48.652;9.194;2023-04-12T13:28:27;94776.56;;;14.92;61.38
69411;BME280;56604;48.652;9.194;2023-04-12T13:30:52;94767.19;;;14.85;61.88
69411;BME280;56604;48.652;9.194;2023-04-12T13:33:18;94760.06;;;14.95;61.88